createdAt,value
2022-08-19T00:01:29.162Z,5.38
2022-08-19T00:04:03.336Z,6.68
2022-08-19T00:06:31.252Z,6.13
2022-08-19T00:08:58.168Z,8.82
2022-08-19T00:11:26.770Z,8.75
2022-08-19T00:13:56.856Z,6.80
2022-08-19T00:16:26.294Z,9.98
2022-08-19T00:18:55.675Z,6.40
2022-08-19T00:21:22.914Z,5.75
2022-08-19T00:23:49.324Z,4.93
2022-08-19T00:26:16.578Z,5.85
2022-08-19T00:28:42.698Z,9.48
2022-08-19T00:31:09.804Z,5.43
2022-08-19T00:33:37.043Z,7.85
2022-08-19T00:36:06.484Z,6.75
2022-08-19T00:38:37.713Z,4.57
2022-08-19T00:41:06.344Z,4.97
2022-08-19T00:43:32.761Z,4.70
2022-08-19T00:45:59.147Z,4.80
2022-08-19T00:48:25.769Z,4.70
2022-08-19T00:50:54.565Z,4.72
2022-08-19T00:53:24.512Z,10.02
2022-08-19T00:55:53.765Z,5.43
2022-08-19T00:58:22.488Z,5.75
2022-08-19T01:00:48.965Z,5.13
2022-08-19T01:03:19.205Z,5.25
2022-08-19T01:05:47.700Z,10.52
2022-08-19T01:08:15.736Z,5.22
2022-08-19T01:10:46.450Z,6.90
2022-08-19T01:13:15.632Z,5.80
2022-08-19T01:15:49.270Z,5.60
2022-08-19T01:18:18.281Z,6.63
2022-08-19T01:20:44.881Z,7.10
2022-08-19T01:23:12.854Z,4.50
2022-08-19T01:25:48.394Z,5.25
2022-08-19T01:28:34.224Z,4.95
2022-08-19T01:33:34.849Z,5.78
2022-08-19T01:36:15.078Z,4.60
2022-08-19T01:38:44.543Z,4.70
2022-08-19T01:41:12.661Z,5.22
2022-08-19T01:43:38.905Z,7.05
2022-08-19T01:46:25.223Z,4.65
2022-08-19T01:48:51.400Z,6.30
2022-08-19T01:51:18.107Z,4.18
2022-08-19T01:53:48.722Z,8.65
2022-08-19T01:56:14.893Z,5.95
2022-08-19T01:58:51.002Z,8.05
2022-08-19T02:01:18.174Z,6.15
2022-08-19T02:03:46.218Z,5.75
2022-08-19T02:06:12.415Z,4.40
2022-08-19T02:08:39.818Z,4.40
2022-08-19T02:11:09.813Z,8.20
2022-08-19T02:13:35.907Z,5.97
2022-08-19T02:16:04.371Z,4.60
2022-08-19T02:18:30.748Z,6.15
2022-08-19T02:20:56.821Z,4.75
2022-08-19T02:23:22.945Z,5.07
2022-08-19T02:25:49.421Z,6.97
2022-08-19T02:28:18.737Z,5.72
2022-08-19T02:30:47.458Z,6.97
2022-08-19T02:33:13.954Z,9.95
2022-08-19T02:35:47.409Z,14.63
2022-08-19T02:38:26.597Z,7.30
2022-08-19T02:41:02.673Z,6.43
2022-08-19T02:43:33.652Z,8.93
2022-08-19T02:46:00.626Z,7.30
2022-08-19T02:48:26.769Z,11.40
2022-08-19T02:50:55.692Z,10.05
2022-08-19T02:53:27.724Z,10.50
2022-08-19T02:55:54.700Z,9.05
2022-08-19T02:58:22.674Z,8.45
2022-08-19T03:00:53.105Z,7.38
2022-08-19T03:03:20.168Z,11.87
2022-08-19T03:05:55.947Z,10.45
2022-08-19T03:08:24.659Z,14.20
2022-08-19T03:10:53.326Z,9.15
2022-08-19T03:13:19.889Z,8.05
2022-08-19T03:15:47.670Z,11.85
2022-08-19T03:18:15.434Z,9.27
2022-08-19T03:20:48.098Z,12.05
2022-08-19T03:23:15.960Z,10.18
2022-08-19T03:25:58.418Z,9.45
2022-08-19T03:28:36.574Z,10.32
2022-08-19T03:31:41.627Z,9.93
2022-08-19T03:33:57.374Z,8.98
2022-08-19T03:36:26.225Z,10.23
2022-08-19T03:38:59.648Z,13.77
2022-08-19T03:41:34.337Z,8.23
2022-08-19T03:44:17.018Z,16.77
2022-08-19T03:46:46.826Z,7.97
2022-08-19T03:49:14.421Z,9.25
2022-08-19T03:51:41.960Z,8.50
2022-08-19T03:54:11.453Z,7.72
2022-08-19T03:56:39.274Z,9.15
2022-08-19T03:59:11.010Z,9.48
2022-08-19T04:01:41.411Z,10.73
2022-08-19T04:04:07.743Z,14.10
2022-08-19T04:06:39.625Z,8.35
2022-08-19T04:09:08.872Z,11.70
2022-08-19T04:11:48.358Z,11.70
2022-08-19T04:14:21.658Z,13.40
2022-08-19T04:16:48.868Z,8.65
2022-08-19T04:19:17.041Z,11.13
2022-08-19T04:21:48.989Z,9.80
2022-08-19T04:24:16.444Z,11.20
2022-08-19T04:26:42.888Z,10.50
2022-08-19T04:29:13.014Z,12.43
2022-08-19T04:31:41.368Z,10.02
2022-08-19T04:34:11.175Z,9.18
2022-08-19T04:36:40.886Z,8.90
2022-08-19T04:39:10.552Z,8.38
2022-08-19T04:41:55.241Z,16.27
2022-08-19T04:44:22.202Z,14.35
2022-08-19T04:46:51.480Z,15.30
2022-08-19T04:49:23.467Z,16.23
2022-08-19T04:51:52.931Z,16.17
2022-08-19T04:54:37.043Z,15.35
2022-08-19T04:57:06.934Z,15.35
2022-08-19T04:59:33.957Z,12.50
2022-08-19T05:02:00.276Z,14.65
2022-08-19T05:04:26.627Z,12.27
2022-08-19T05:07:00.858Z,15.02
2022-08-19T05:09:28.584Z,13.35
2022-08-19T05:12:14.821Z,19.55
2022-08-19T05:14:40.893Z,19.38
2022-08-19T05:17:26.501Z,24.02
2022-08-19T05:20:12.130Z,21.77
2022-08-19T05:22:40.165Z,18.08
2022-08-19T05:25:13.493Z,20.00
2022-08-19T05:27:41.902Z,19.65
2022-08-19T05:30:09.078Z,26.55
2022-08-19T05:32:35.319Z,32.97
2022-08-19T05:35:01.577Z,34.03
2022-08-19T05:37:30.046Z,30.48
2022-08-19T05:39:56.258Z,38.58
2022-08-19T05:42:23.556Z,44.30
2022-08-19T05:44:50.627Z,50.35
2022-08-19T05:47:20.336Z,64.00
2022-08-19T05:49:46.748Z,52.70
2022-08-19T05:52:15.799Z,52.42
2022-08-19T05:54:48.193Z,55.78
2022-08-19T05:57:18.788Z,51.00
2022-08-19T05:59:49.100Z,51.83
2022-08-19T06:02:15.508Z,57.92
2022-08-19T06:04:44.623Z,49.33
2022-08-19T06:07:12.800Z,51.35
2022-08-19T06:09:40.418Z,51.92
2022-08-19T06:12:07.424Z,53.53
2022-08-19T06:14:37.629Z,55.03
2022-08-19T06:17:08.649Z,46.72
2022-08-19T06:19:34.766Z,51.88
2022-08-19T06:22:08.429Z,50.50
2022-08-19T06:24:35.509Z,51.45
2022-08-19T06:27:02.060Z,51.17
2022-08-19T06:29:30.120Z,52.70
2022-08-19T06:31:59.632Z,54.08
2022-08-19T06:34:28.461Z,51.20
2022-08-19T06:36:55.073Z,54.95
2022-08-19T06:39:26.557Z,51.88
2022-08-19T06:41:58.670Z,52.50
2022-08-19T06:44:27.410Z,58.90
2022-08-19T06:46:55.151Z,64.22
2022-08-19T06:49:22.214Z,62.67
2022-08-19T06:51:52.127Z,70.07
2022-08-19T06:54:20.244Z,69.22
2022-08-19T06:56:46.953Z,72.18
2022-08-19T06:59:16.773Z,70.88
2022-08-19T07:01:54.128Z,71.97
2022-08-19T07:04:23.532Z,70.05
2022-08-19T07:06:57.209Z,74.43
2022-08-19T07:09:24.989Z,79.55
2022-08-19T07:11:53.005Z,80.55
2022-08-19T07:14:24.185Z,89.20
2022-08-19T07:16:53.921Z,77.95
2022-08-19T07:19:20.382Z,86.40
2022-08-19T07:21:54.209Z,83.38
2022-08-19T07:24:24.372Z,79.40
2022-08-19T07:26:52.546Z,83.40
2022-08-19T07:29:23.561Z,83.60
2022-08-19T07:31:53.006Z,83.35
2022-08-19T07:34:20.445Z,77.22
2022-08-19T07:36:46.588Z,82.50
2022-08-19T07:39:17.150Z,77.85
2022-08-19T07:41:44.329Z,75.60
2022-08-19T07:44:13.489Z,75.05
2022-08-19T07:46:42.335Z,69.30
2022-08-19T07:49:13.958Z,68.05
2022-08-19T07:51:40.191Z,69.38
2022-08-19T07:54:06.406Z,75.40
2022-08-19T07:56:32.560Z,65.55
2022-08-19T07:58:58.774Z,66.43
2022-08-19T08:01:26.953Z,71.63
2022-08-19T08:04:12.584Z,67.25
2022-08-19T08:06:57.634Z,60.55
2022-08-19T08:09:27.241Z,60.47
2022-08-19T08:12:02.011Z,55.08
2022-08-19T08:14:35.666Z,57.65
2022-08-19T08:17:03.608Z,48.92
2022-08-19T08:19:38.128Z,52.42
2022-08-19T08:22:06.638Z,53.45
2022-08-19T08:24:33.997Z,55.95
2022-08-19T08:27:01.257Z,52.28
2022-08-19T08:29:34.779Z,51.65
2022-08-19T08:32:02.835Z,51.33
2022-08-19T08:34:29.244Z,44.17
2022-08-19T08:36:55.553Z,41.35
2022-08-19T08:39:24.154Z,48.38
2022-08-19T08:42:10.187Z,41.13
2022-08-19T08:45:01.594Z,43.63
2022-08-19T08:47:35.829Z,33.30
2022-08-19T08:50:07.238Z,35.13
2022-08-19T08:52:38.003Z,33.22
2022-08-19T08:55:20.304Z,30.55
2022-08-19T08:57:49.380Z,32.33
2022-08-19T09:00:20.284Z,32.00
2022-08-19T09:05:22.351Z,33.38
2022-08-19T09:08:05.428Z,28.17
2022-08-19T09:10:45.060Z,27.95
2022-08-19T09:13:49.754Z,30.33
2022-08-19T09:16:21.180Z,30.77
2022-08-19T09:18:54.027Z,32.95
2022-08-19T09:21:30.310Z,27.90
2022-08-19T09:24:03.410Z,28.65
2022-08-19T09:26:47.254Z,26.88
2022-08-19T09:29:15.644Z,27.23
2022-08-19T09:31:44.670Z,29.73
2022-08-19T09:34:21.566Z,27.23
2022-08-19T09:36:55.232Z,21.33
2022-08-19T09:39:22.331Z,23.02
2022-08-19T09:41:50.125Z,21.73
2022-08-19T09:44:16.681Z,23.05
2022-08-19T09:46:44.749Z,20.38
2022-08-19T09:49:11.116Z,23.00
2022-08-19T09:51:39.579Z,22.02
2022-08-19T09:54:06.347Z,19.77
2022-08-19T09:56:34.099Z,16.58
2022-08-19T09:59:02.166Z,19.65
2022-08-19T10:01:30.435Z,26.25
2022-08-19T10:04:00.182Z,21.52
2022-08-19T10:06:42.009Z,17.17
2022-08-19T10:09:13.534Z,20.40
2022-08-19T10:11:49.888Z,22.83
2022-08-19T10:14:22.541Z,18.83
2022-08-19T10:16:49.775Z,27.10
2022-08-19T10:19:15.942Z,19.05
2022-08-19T10:21:52.415Z,19.70
2022-08-19T10:24:21.294Z,21.75
2022-08-19T10:26:49.231Z,22.77
2022-08-19T10:29:32.448Z,25.00
2022-08-19T10:32:09.452Z,19.77
2022-08-19T10:34:48.688Z,20.90
2022-08-19T10:37:23.706Z,25.50
2022-08-19T10:39:55.146Z,18.65
2022-08-19T10:42:22.657Z,17.52
2022-08-19T10:44:49.017Z,18.10
2022-08-19T10:47:25.545Z,17.88
2022-08-19T10:50:12.536Z,18.33
2022-08-19T10:52:49.294Z,19.05
2022-08-19T10:55:42.067Z,16.88
2022-08-19T10:58:17.193Z,21.13
2022-08-19T11:00:51.076Z,20.23
2022-08-19T11:03:17.324Z,18.63
2022-08-19T11:05:45.621Z,19.80
2022-08-19T11:08:22.270Z,21.42
2022-08-19T11:10:57.160Z,20.65
2022-08-19T11:13:23.848Z,15.90
2022-08-19T11:15:58.155Z,24.15
2022-08-19T11:18:24.603Z,13.13
2022-08-19T11:20:50.818Z,13.60
2022-08-19T11:23:16.945Z,20.20
2022-08-19T11:25:43.762Z,15.60
2022-08-19T11:28:10.212Z,20.40
2022-08-19T11:30:38.417Z,19.63
2022-08-19T11:33:04.601Z,22.35
2022-08-19T11:35:31.055Z,19.95
2022-08-19T11:38:01.699Z,19.65
2022-08-19T11:40:27.998Z,23.25
2022-08-19T11:42:57.786Z,27.05
2022-08-19T11:45:34.221Z,23.33
2022-08-19T11:48:01.087Z,24.25
2022-08-19T11:50:27.476Z,19.98
2022-08-19T11:52:58.623Z,18.85
2022-08-19T11:55:24.879Z,20.65
2022-08-19T11:57:51.198Z,23.88
2022-08-19T12:00:17.737Z,22.65
2022-08-19T12:02:44.075Z,18.80
2022-08-19T12:05:14.554Z,31.35
2022-08-19T12:07:42.020Z,23.23
2022-08-19T12:10:11.711Z,23.42
2022-08-19T12:12:58.781Z,22.38
2022-08-19T12:15:27.814Z,45.45
2022-08-19T12:17:56.855Z,34.70
2022-08-19T12:20:23.969Z,28.50
2022-08-19T12:22:51.576Z,37.22
2022-08-19T12:25:20.093Z,25.60
2022-08-19T12:27:57.322Z,24.40
2022-08-19T12:30:25.489Z,19.40
2022-08-19T12:32:52.129Z,24.23
2022-08-19T12:35:22.765Z,19.08
2022-08-19T12:37:53.589Z,22.90
2022-08-19T12:40:24.175Z,24.10
2022-08-19T12:42:53.550Z,24.13
2022-08-19T12:45:20.049Z,19.42
2022-08-19T12:47:49.593Z,17.60
2022-08-19T12:50:16.424Z,15.90
2022-08-19T12:52:42.641Z,17.55
2022-08-19T12:55:11.456Z,22.98
2022-08-19T12:57:38.369Z,25.50
2022-08-19T13:00:13.596Z,21.05
2022-08-19T13:02:43.186Z,19.48
2022-08-19T13:05:11.973Z,25.35
2022-08-19T13:07:41.436Z,22.92
2022-08-19T13:10:09.669Z,23.88
2022-08-19T13:12:35.816Z,19.48
2022-08-19T13:15:02.293Z,20.25
2022-08-19T13:17:29.240Z,20.38
2022-08-19T13:19:55.448Z,29.42
2022-08-19T13:22:21.999Z,24.25
2022-08-19T13:24:48.989Z,21.70
2022-08-19T13:27:15.644Z,18.75
2022-08-19T13:30:01.391Z,20.42
2022-08-19T13:32:47.525Z,15.80
2022-08-19T13:35:17.047Z,17.13
2022-08-19T13:37:45.861Z,14.55
2022-08-19T13:40:18.614Z,16.98
2022-08-19T13:42:50.764Z,14.98
2022-08-19T13:45:20.351Z,13.07
2022-08-19T13:47:50.526Z,14.32
2022-08-19T13:50:20.404Z,11.27
2022-08-19T13:52:47.797Z,17.50
2022-08-19T13:55:15.153Z,11.77
2022-08-19T13:57:53.215Z,18.77
2022-08-19T14:00:19.929Z,16.00
2022-08-19T14:02:47.680Z,11.45
2022-08-19T14:05:16.004Z,13.98
2022-08-19T14:07:42.252Z,13.52
2022-08-19T14:10:11.102Z,13.20
2022-08-19T14:12:37.925Z,12.00
2022-08-19T14:15:06.345Z,12.55
2022-08-19T14:17:35.890Z,12.57
2022-08-19T14:20:10.917Z,10.35
2022-08-19T14:22:40.360Z,13.80
2022-08-19T14:25:10.847Z,10.38
2022-08-19T14:27:38.431Z,13.45
2022-08-19T14:30:07.522Z,11.30
2022-08-19T14:32:34.514Z,12.57
2022-08-19T14:35:02.871Z,12.18
2022-08-19T14:37:29.399Z,8.40
2022-08-19T14:39:55.982Z,8.73
2022-08-19T14:42:22.189Z,11.30
2022-08-19T14:44:50.357Z,6.93
2022-08-19T14:47:16.740Z,9.82
2022-08-19T14:49:48.319Z,7.55
2022-08-19T14:52:14.794Z,9.93
2022-08-19T14:54:41.065Z,12.85
2022-08-19T14:57:09.103Z,9.10
2022-08-19T14:59:35.961Z,6.75
2022-08-19T15:02:34.094Z,8.70
2022-08-19T15:04:58.393Z,8.98
2022-08-19T15:07:28.880Z,7.32
2022-08-19T15:09:57.649Z,8.60
2022-08-19T15:12:24.326Z,6.45
2022-08-19T15:14:50.888Z,6.93
2022-08-19T15:17:19.304Z,6.55
2022-08-19T15:19:46.056Z,7.68
2022-08-19T15:22:12.601Z,4.80
2022-08-19T15:24:48.221Z,5.32
2022-08-19T15:27:14.671Z,6.20
2022-08-19T15:29:41.057Z,5.68
2022-08-19T15:32:09.303Z,3.63
2022-08-19T15:34:35.684Z,5.40
2022-08-19T15:37:03.955Z,4.78
2022-08-19T15:39:30.688Z,5.05
2022-08-19T15:42:00.150Z,4.65
2022-08-19T15:44:26.918Z,4.60
2022-08-19T15:46:53.047Z,4.07
2022-08-19T15:49:19.672Z,3.05
2022-08-19T15:51:48.936Z,5.85
2022-08-19T15:54:20.769Z,3.15
2022-08-19T15:57:06.903Z,3.60
2022-08-19T15:59:52.899Z,3.72
2022-08-19T16:02:39.907Z,5.07
2022-08-19T16:05:27.747Z,4.50
2022-08-19T16:07:54.663Z,3.42
2022-08-19T16:10:27.449Z,3.10
2022-08-19T16:12:55.354Z,4.15
2022-08-19T16:15:21.690Z,3.30
2022-08-19T16:17:55.423Z,3.10
2022-08-19T16:20:28.581Z,5.28
2022-08-19T16:25:27.903Z,5.15
2022-08-19T16:28:07.038Z,4.90
2022-08-19T16:30:38.310Z,5.65
2022-08-19T16:33:04.973Z,4.05
2022-08-19T16:35:31.461Z,3.03
2022-08-19T16:37:58.211Z,3.35
2022-08-19T16:40:27.674Z,6.53
2022-08-19T16:42:56.695Z,9.95
2022-08-19T16:45:23.784Z,5.32
2022-08-19T16:47:50.057Z,6.88
2022-08-19T16:50:22.113Z,4.82
2022-08-19T16:53:00.401Z,5.43
2022-08-19T16:55:29.076Z,5.60
2022-08-19T16:57:55.903Z,5.20
2022-08-19T17:00:22.570Z,4.95
2022-08-19T17:02:48.851Z,5.35
2022-08-19T17:05:16.117Z,8.23
2022-08-19T17:07:43.256Z,6.30
2022-08-19T17:10:09.605Z,12.07
2022-08-19T17:12:38.417Z,9.65
2022-08-19T17:15:08.828Z,7.57
2022-08-19T17:17:36.766Z,8.68
2022-08-19T17:20:06.434Z,7.25
2022-08-19T17:22:40.780Z,9.48
2022-08-19T17:25:07.545Z,9.07
2022-08-19T17:27:37.903Z,7.25
2022-08-19T17:30:06.793Z,8.13
2022-08-19T17:32:34.848Z,5.93
2022-08-19T17:35:03.459Z,10.07
2022-08-19T17:37:29.855Z,9.40
2022-08-19T17:39:56.113Z,5.43
2022-08-19T17:42:24.260Z,8.32
2022-08-19T17:44:51.925Z,7.85
2022-08-19T17:47:20.640Z,5.80
2022-08-19T17:49:47.677Z,10.38
2022-08-19T17:52:14.568Z,8.45
2022-08-19T17:54:42.150Z,4.97
2022-08-19T17:57:09.433Z,8.15
2022-08-19T17:59:39.238Z,9.15
2022-08-19T18:02:08.307Z,5.95
2022-08-19T18:04:40.250Z,6.75
2022-08-19T18:07:07.449Z,4.95
2022-08-19T18:09:41.787Z,6.85
2022-08-19T18:12:13.367Z,4.50
2022-08-19T18:14:41.241Z,6.03
2022-08-19T18:17:10.791Z,5.45
2022-08-19T18:19:41.166Z,3.17
2022-08-19T18:22:36.361Z,5.63
2022-08-19T18:25:26.949Z,3.58
2022-08-19T18:28:00.763Z,3.58
2022-08-19T18:30:33.926Z,2.10
2022-08-19T18:33:07.270Z,2.40
2022-08-19T18:35:38.127Z,8.85
2022-08-19T18:38:25.222Z,3.75
2022-08-19T18:41:10.071Z,3.25
2022-08-19T18:43:57.157Z,2.20
2022-08-19T18:46:42.183Z,4.20
2022-08-19T18:49:12.750Z,5.72
2022-08-19T18:51:38.872Z,2.83
2022-08-19T18:54:06.150Z,3.22
2022-08-19T18:56:34.053Z,3.30
2022-08-19T18:59:01.287Z,3.97
2022-08-19T19:01:36.199Z,2.72
2022-08-19T19:04:10.737Z,3.00
2022-08-19T19:06:40.298Z,6.03
2022-08-19T19:09:13.174Z,2.92
2022-08-19T19:11:44.348Z,7.68
2022-08-19T19:17:01.286Z,3.80
2022-08-19T19:19:28.431Z,2.63
2022-08-19T19:21:55.362Z,5.40
2022-08-19T19:24:29.378Z,7.40
2022-08-19T19:26:59.502Z,4.75
2022-08-19T19:29:26.337Z,4.53
2022-08-19T19:31:55.465Z,3.78
2022-08-19T19:34:29.328Z,4.90
2022-08-19T19:36:56.467Z,3.83
2022-08-19T19:39:33.994Z,5.05
2022-08-19T19:42:12.560Z,6.72
2022-08-19T19:44:48.078Z,4.68
2022-08-19T19:47:14.947Z,4.72
2022-08-19T19:49:57.919Z,6.18
2022-08-19T19:52:27.424Z,5.63
2022-08-19T19:54:55.988Z,6.55
2022-08-19T19:57:26.028Z,8.63
2022-08-19T19:59:53.425Z,6.18
2022-08-19T20:02:21.136Z,4.00
2022-08-19T20:04:48.174Z,4.82
2022-08-19T20:07:14.350Z,3.55
2022-08-19T20:09:58.761Z,6.65
2022-08-19T20:12:25.786Z,8.30
2022-08-19T20:14:51.829Z,8.70
2022-08-19T20:17:19.667Z,4.22
2022-08-19T20:19:46.168Z,3.17
2022-08-19T20:22:13.506Z,7.68
2022-08-19T20:24:41.672Z,11.65
2022-08-19T20:27:09.252Z,7.75
2022-08-19T20:29:39.622Z,9.38
2022-08-19T20:32:09.151Z,4.82
2022-08-19T20:34:36.457Z,6.38
2022-08-19T20:37:02.790Z,6.78
2022-08-19T20:39:29.117Z,6.50
2022-08-19T20:41:55.749Z,6.95
2022-08-19T20:44:24.634Z,8.75
2022-08-19T20:46:55.495Z,10.75
2022-08-19T20:49:22.740Z,7.57
2022-08-19T20:51:54.014Z,6.53
2022-08-19T20:54:20.105Z,7.63
2022-08-19T20:56:46.190Z,6.68
2022-08-19T20:59:12.302Z,12.05
2022-08-19T21:01:39.045Z,6.53
2022-08-19T21:04:05.462Z,12.68
2022-08-19T21:06:31.684Z,10.18
2022-08-19T21:08:58.631Z,9.30
2022-08-19T21:11:24.776Z,9.68
2022-08-19T21:13:51.253Z,11.07
2022-08-19T21:16:18.596Z,10.13
2022-08-19T21:18:44.690Z,11.75
2022-08-19T21:21:10.820Z,9.93
2022-08-19T21:23:37.076Z,12.73
2022-08-19T21:26:04.080Z,10.55
2022-08-19T21:28:36.363Z,11.40
2022-08-19T21:31:04.949Z,13.40
2022-08-19T21:33:31.889Z,11.63
2022-08-19T21:36:01.373Z,13.52
2022-08-19T21:38:28.673Z,12.18
2022-08-19T21:40:55.635Z,10.25
2022-08-19T21:43:23.482Z,10.13
2022-08-19T21:45:50.354Z,13.43
2022-08-19T21:48:17.067Z,10.30
2022-08-19T21:50:44.282Z,14.52
2022-08-19T21:55:52.850Z,11.35
2022-08-19T21:58:28.125Z,11.27
2022-08-19T22:01:07.159Z,11.18
2022-08-19T22:03:35.458Z,15.35
2022-08-19T22:06:02.144Z,12.57
2022-08-19T22:08:31.161Z,12.77
2022-08-19T22:10:58.983Z,13.70
2022-08-19T22:13:26.129Z,17.67
2022-08-19T22:15:52.474Z,13.85
2022-08-19T22:18:19.621Z,16.42
2022-08-19T22:20:47.240Z,16.33
2022-08-19T22:23:14.294Z,15.00
2022-08-19T22:25:44.444Z,15.43
2022-08-19T22:28:14.389Z,15.77
2022-08-19T22:30:46.704Z,16.75
2022-08-19T22:33:17.171Z,16.42
2022-08-19T22:35:45.776Z,22.00
2022-08-19T22:38:12.441Z,16.60
2022-08-19T22:40:42.164Z,15.13
2022-08-19T22:43:15.027Z,23.02
2022-08-19T22:45:42.926Z,19.33
2022-08-19T22:48:12.077Z,17.63
2022-08-19T22:50:39.886Z,18.42
2022-08-19T22:53:07.783Z,19.00
2022-08-19T22:55:36.228Z,16.15
2022-08-19T22:58:03.552Z,22.50
2022-08-19T23:00:30.558Z,21.75
2022-08-19T23:02:57.860Z,19.17
2022-08-19T23:05:26.573Z,15.10
2022-08-19T23:07:53.467Z,18.60
2022-08-19T23:10:26.623Z,13.93
2022-08-19T23:12:56.530Z,13.82
2022-08-19T23:15:25.784Z,18.98
2022-08-19T23:17:53.836Z,17.88
2022-08-19T23:20:21.603Z,18.75
2022-08-19T23:22:51.840Z,18.80
2022-08-19T23:25:23.287Z,17.17
2022-08-19T23:28:08.715Z,18.60
2022-08-19T23:30:38.497Z,16.33
2022-08-19T23:33:13.669Z,15.75
2022-08-19T23:35:41.171Z,18.55
2022-08-19T23:38:09.096Z,17.27
2022-08-19T23:40:36.777Z,18.35
2022-08-19T23:43:08.164Z,16.73
2022-08-19T23:45:40.694Z,16.67
2022-08-19T23:48:17.882Z,17.90
2022-08-19T23:50:45.086Z,20.52
2022-08-19T23:53:13.364Z,18.88
2022-08-19T23:55:42.685Z,18.02
2022-08-19T23:58:09.128Z,19.25
